Forside
METAR-TAF:

METAR-TAF

Lufthavne :

Menomonie Municipal Airport (Score Field)

Menomonie, Wisconsin, USA

Breddekreds: 44-53-32N, længdekreds: 091-52-04W, højde: 273 m

Aktuelle vejr

Denne rapport blev lavet for 26 minutter siden, kl. 02:35 UTC
Vind 4 kt fra sydøst
Temperatur 20°C
Fugtighed 78%
Tryk 1011 hPa
Sigt: 11.3 km
Spredte skyer i en højde af 7000 ft
Overskyet i en højde af 8500 ft

METAR: KLUM 250235Z AUTO 14004KT 7SM SCT070 OVC085 20/16 A2984 RMK AO2 T02020155

Tid: 22:01 (03:01 UTC)


TAF: fraværende

Vejrobservationer og prognoser fra mere end 4000 lufthavne (METAR og TAF).

De gule og røde prikker repræsenterer de meteorologiske stationer.

Flyt musen over at se navnet på stationen.

Så klik over at se vejr observationer og prognoser.

At skifte det kort: Klik på de grønne knapper med et sort kors for at zoome ind; på den grønne knap med en bindestreg for at zoome ud; eller på de grønne pile for tilstødende kort.


METAR-TAF: